Juan de Fuca Strait - east entrance: Past 24 Hour Conditions

 

Comox Airport

10:00 PM PDT 24 April 2014
This table is a summary of hourly weather conditions for the past 24 hours.
Date / Time
(PDT)
Wind(knots) Conditions Visibility(km) Pressure(kPa) Air tempC) Relative humidity(%) Dew pointC)
24 April 2014
22:00 S 10 Mostly Cloudy 32 100.9 8 74 4
21:00 S 11 Mostly Cloudy 32 100.9 9 73 4
20:00 S 10 Mostly Cloudy 32 100.8 10 70 5
19:00 S 10 Mostly Cloudy 32 100.8 11 65 5
18:00 S 7 Cloudy 32 100.7 11 70 6
17:00 SSE 8 Mostly Cloudy 32 100.7 12 68 6
16:00 S 9 Light Rainshower 32 100.6 12 68 6
15:00 SE 13 Mostly Cloudy 32 100.6 11 70 6
14:00 SSE 12 gust 17 Mostly Cloudy 32 100.5 11 71 6
13:00 SSE 15 gust 22 Mostly Cloudy 32 100.4 11 69 6
12:00 SE 16 gust 25 Mostly Cloudy 32 100.3 11 76 7
11:00 SE 17 gust 25 Mostly Cloudy 32 100.2 11 84 8
10:00 SSE 15 gust 21 Mostly Cloudy 32 100.2 10 89 8
9:00 SE 18 gust 24 Mostly Cloudy 32 100.0 9 95 8
8:00 SE 13 Mostly Cloudy 32 100.0 9 91 8
7:00 SSE 14 gust 20 Mostly Cloudy 32 99.9 8 91 7
6:00 SSE 18 gust 27 Cloudy 32 99.9 8 95 7
5:00 SSE 18 Light Rain 24 99.9 8 95 7
4:00 SSE 16 gust 27 Light Rain 13 99.9 8 96 7
3:00 SE 19 Light Rain 19 99.9 8 94 7
2:00 SE 14 gust 20 Light Rain 10 100.0 8 95 7
1:00 SE 10 Rain 10 100.1 8 97 7
0:00 SE 10 Rain 10 100.2 8 96 7
23 April 2014
23:00 SSE 10 Light Rainshower 24 100.3 8 89 6
22:00 SSE 13 gust 19 Light Rainshower 24 100.4 8 85 6
 
Map of Pacific - South Coast marine weather areas Tsawwassen Ferry Terminal South Nomad - 46036 Sentry Shoal - 46131 South Brooks - 46132 Halibut Bank - 46146 South Moresby - 46147 South Hecate Strait - 46185 West Sea Otter - 46204 La Perouse Bank - 46206 East Dellwood - 46207 Discovery Island Esquimalt Harbour Kelp Reefs Malahat Race Rocks Lightstation Saturna Island Sheringham Point University of Victoria Victoria Gonzales Victoria Int'l Airport Ballenas Islands Campbell River Airport Comox Airport Entrance Island Fanny Island Nanaimo Airport Port Hardy Airport Sisters Islets Estevan Point Sartine Island Solander Island Tofino Airport Grief Point Powell River Airport Sechelt Cape St.James Bella Bella Airport Bella Coola Airport Cathedral Point Herbert Island Point Atkinson Sand Heads Lightstation Vancouver Harbour Vancouver Int'l Airport West Vancouver Port Alberni Howe Sound - Pam Rocks Squamish Airport